Meadowlakes, Texas
Current Conditions -  °F | °C
As of 12:35 AM on Tuesday 21 Oct 2014 (Local Time) from KDZB Reporting Station
Clear Clear  
Wind Chill: 63°   Ceiling: Unl
Heat Index: 63°   Visibility: 10mi
Dew Point: 57°   Wind: 3mph
Humidity: 80%   Direction: 160°SSE
Pressure: 30.06"   Gusts: NA
Location:  30.5925°N, 98.2219°W
Report Text: KDZB 210535Z AUTO 16003KT 10SM CLR 17/14 A3006 RMK AO2 T01730138
Loading
Personal Weather Stations






























Interactive Weather Map
Tropical Storm Tracking
New forecast layout! Learn more

10-Day Weather Forecast

Advertisements
Track Severe Weather on mobile